createdAt,value
2023-04-03T00:02:54.622Z,63.26
2023-04-03T00:06:57.770Z,63.61
2023-04-03T00:11:01.141Z,64.04
2023-04-03T00:15:06.620Z,63.71
2023-04-03T00:19:09.685Z,64.05
2023-04-03T00:23:12.777Z,63.95
2023-04-03T00:27:16.818Z,63.71
2023-04-03T00:31:21.437Z,64.24
2023-04-03T00:35:25.613Z,64.18
2023-04-03T00:39:29.140Z,64.09
2023-04-03T00:43:32.205Z,64.14
2023-04-03T00:47:37.070Z,64.36
2023-04-03T00:51:40.117Z,64.49
2023-04-03T00:55:45.061Z,64.30
2023-04-03T00:59:52.926Z,64.47
2023-04-03T01:03:57.800Z,64.66
2023-04-03T01:08:02.449Z,64.69
2023-04-03T01:12:39.323Z,64.96
2023-04-03T01:17:39.541Z,65.04
2023-04-03T01:27:26.796Z,65.41
2023-04-03T01:32:01.386Z,65.33
2023-04-03T01:42:04.544Z,65.39
2023-04-03T01:46:22.116Z,65.24
2023-04-03T01:50:47.608Z,65.37
2023-04-03T01:55:19.073Z,65.45
2023-04-03T01:59:51.960Z,65.48
2023-04-03T02:04:17.606Z,65.79
2023-04-03T02:08:51.459Z,65.36
2023-04-03T02:13:35.830Z,65.40
2023-04-03T02:17:53.554Z,65.79
2023-04-03T02:22:02.160Z,65.85
2023-04-03T02:26:10.299Z,65.86
2023-04-03T02:30:15.632Z,65.80
2023-04-03T02:34:19.135Z,65.76
2023-04-03T02:38:23.543Z,65.56
2023-04-03T02:42:28.117Z,65.25
2023-04-03T02:46:31.659Z,65.34
2023-04-03T02:50:35.210Z,64.94
2023-04-03T02:54:38.617Z,65.37
2023-04-03T02:58:46.067Z,64.88
2023-04-03T03:02:51.178Z,65.07
2023-04-03T03:06:54.636Z,65.30
2023-04-03T03:10:57.701Z,65.12
2023-04-03T03:15:02.128Z,65.61
2023-04-03T03:19:05.758Z,65.71
2023-04-03T03:23:09.183Z,65.46
2023-04-03T03:27:13.169Z,65.78
2023-04-03T03:31:17.818Z,65.21
2023-04-03T03:35:21.011Z,65.30
2023-04-03T03:39:24.477Z,65.12
2023-04-03T03:43:27.556Z,64.66
2023-04-03T03:47:32.630Z,64.99
2023-04-03T03:51:35.805Z,65.02
2023-04-03T03:55:39.417Z,64.89
2023-04-03T03:59:43.622Z,65.23
2023-04-03T04:03:48.307Z,65.07
2023-04-03T04:07:56.326Z,65.08
2023-04-03T04:12:00.546Z,64.89
2023-04-03T04:16:04.666Z,65.05
2023-04-03T04:20:12.774Z,65.12
2023-04-03T04:24:16.976Z,65.08
2023-04-03T04:28:20.933Z,65.45
2023-04-03T04:32:26.857Z,65.38
2023-04-03T04:36:31.996Z,65.73
2023-04-03T04:40:35.344Z,66.23
2023-04-03T04:44:38.428Z,66.34
2023-04-03T04:48:42.087Z,66.54
2023-04-03T04:52:47.479Z,66.45
2023-04-03T04:56:50.938Z,66.96
2023-04-03T05:01:01.172Z,67.32
2023-04-03T05:05:05.786Z,67.05
2023-04-03T05:09:12.009Z,67.35
2023-04-03T05:13:17.522Z,67.46
2023-04-03T05:17:21.308Z,67.36
2023-04-03T05:21:30.304Z,67.35
2023-04-03T05:25:35.322Z,67.19
2023-04-03T05:29:39.790Z,66.50
2023-04-03T05:33:43.179Z,66.26
2023-04-03T05:37:51.782Z,65.58
2023-04-03T05:41:56.310Z,66.03
2023-04-03T05:45:59.906Z,64.81
2023-04-03T05:50:05.550Z,65.04
2023-04-03T05:54:14.829Z,64.99
2023-04-03T05:58:20.039Z,64.73
2023-04-03T06:02:26.969Z,64.78
2023-04-03T06:06:45.715Z,65.10
2023-04-03T06:10:48.959Z,64.84
2023-04-03T06:14:53.410Z,64.49
2023-04-03T06:18:57.425Z,65.26
2023-04-03T06:23:01.021Z,65.13
2023-04-03T06:27:05.012Z,65.61
2023-04-03T06:31:09.859Z,65.74
2023-04-03T06:35:12.963Z,65.08
2023-04-03T06:39:18.239Z,63.93
2023-04-03T06:43:24.048Z,63.55
2023-04-03T06:47:28.916Z,64.24
2023-04-03T06:51:32.728Z,64.11
2023-04-03T06:55:37.938Z,64.16
2023-04-03T06:59:41.335Z,63.79
2023-04-03T07:03:46.055Z,62.91
2023-04-03T07:07:50.821Z,62.89
2023-04-03T07:11:54.020Z,63.18
2023-04-03T07:15:57.571Z,62.71
2023-04-03T07:20:02.228Z,62.67
2023-04-03T07:24:10.133Z,62.81
2023-04-03T07:28:17.146Z,62.98
2023-04-03T07:32:20.285Z,62.03
2023-04-03T07:36:25.687Z,62.43
2023-04-03T07:40:28.697Z,62.64
2023-04-03T07:44:31.893Z,62.03
2023-04-03T07:48:36.062Z,60.82
2023-04-03T07:52:40.483Z,61.92
2023-04-03T07:56:44.825Z,61.45
2023-04-03T08:00:48.800Z,61.54
2023-04-03T08:04:52.164Z,60.34
2023-04-03T08:08:56.898Z,60.96
2023-04-03T08:13:00.179Z,59.10
2023-04-03T08:17:05.446Z,58.81
2023-04-03T08:21:09.536Z,59.02
2023-04-03T08:25:14.186Z,58.37
2023-04-03T08:29:17.339Z,58.41
2023-04-03T08:33:20.438Z,57.31
2023-04-03T08:37:23.604Z,57.14
2023-04-03T08:41:36.811Z,57.82
2023-04-03T08:45:48.118Z,57.22
2023-04-03T08:49:54.550Z,55.39
2023-04-03T08:54:02.673Z,56.25
2023-04-03T08:58:09.135Z,55.40
2023-04-03T09:02:26.199Z,54.33
2023-04-03T09:06:33.852Z,54.58
2023-04-03T09:10:41.745Z,54.25
2023-04-03T09:14:51.786Z,53.25
2023-04-03T09:19:01.879Z,52.22
2023-04-03T09:23:19.222Z,53.28
2023-04-03T09:27:22.473Z,53.32
2023-04-03T09:31:29.096Z,53.49
2023-04-03T09:35:45.006Z,53.82
2023-04-03T09:39:52.576Z,52.90
2023-04-03T09:43:57.021Z,52.46
2023-04-03T09:48:15.493Z,52.62
2023-04-03T09:52:26.672Z,52.64
2023-04-03T09:56:31.421Z,51.79
2023-04-03T10:00:37.950Z,51.20
2023-04-03T10:04:43.893Z,51.13
2023-04-03T10:09:01.974Z,51.25
2023-04-03T10:13:20.140Z,50.62
2023-04-03T10:17:35.823Z,51.95
2023-04-03T10:21:46.953Z,51.51
2023-04-03T10:26:01.949Z,49.96
2023-04-03T10:30:21.429Z,48.43
2023-04-03T10:34:29.572Z,49.42
2023-04-03T10:38:45.391Z,48.06
2023-04-03T10:42:57.563Z,47.58
2023-04-03T10:47:07.777Z,48.73
2023-04-03T10:51:24.585Z,48.53
2023-04-03T10:55:38.364Z,48.43
2023-04-03T10:59:46.089Z,46.73
2023-04-03T11:03:52.858Z,46.21
2023-04-03T11:08:02.124Z,46.88
2023-04-03T11:12:13.045Z,47.27
2023-04-03T11:16:23.142Z,48.80
2023-04-03T11:20:34.170Z,47.87
2023-04-03T11:24:42.259Z,47.10
2023-04-03T11:28:47.309Z,46.02
2023-04-03T11:33:13.597Z,46.58
2023-04-03T11:37:24.120Z,45.45
2023-04-03T11:41:29.948Z,46.75
2023-04-03T11:45:52.170Z,47.17
2023-04-03T11:50:03.974Z,47.48
2023-04-03T11:54:44.471Z,47.14
2023-04-03T11:59:24.731Z,46.08
2023-04-03T12:04:03.629Z,46.81
2023-04-03T12:08:27.236Z,46.74
2023-04-03T12:12:36.734Z,46.01
2023-04-03T12:16:48.350Z,46.94
2023-04-03T12:20:59.604Z,45.86
2023-04-03T12:25:48.904Z,46.53
2023-04-03T12:29:58.034Z,44.79
2023-04-03T12:34:17.099Z,45.45
2023-04-03T12:38:53.749Z,45.86
2023-04-03T12:43:22.686Z,44.39
2023-04-03T12:47:33.901Z,45.23
2023-04-03T12:51:42.369Z,44.17
2023-04-03T12:55:45.711Z,44.53
2023-04-03T12:59:49.659Z,44.02
2023-04-03T13:03:57.209Z,44.25
2023-04-03T13:08:06.184Z,43.95
2023-04-03T13:12:15.152Z,44.40
2023-04-03T13:16:19.198Z,45.08
2023-04-03T13:20:26.109Z,45.76
2023-04-03T13:24:32.925Z,44.92
2023-04-03T13:28:37.219Z,44.43
2023-04-03T13:32:40.457Z,44.28
2023-04-03T13:36:48.230Z,45.53
2023-04-03T13:40:55.613Z,44.46
2023-04-03T13:45:18.092Z,44.79
2023-04-03T13:49:23.881Z,44.72
2023-04-03T13:53:28.293Z,45.48
2023-04-03T13:57:33.480Z,45.01
2023-04-03T14:01:49.563Z,44.25
2023-04-03T14:05:53.194Z,44.74
2023-04-03T14:09:56.505Z,44.92
2023-04-03T14:14:07.947Z,44.50
2023-04-03T14:18:14.200Z,43.53
2023-04-03T14:22:19.744Z,44.73
2023-04-03T14:26:27.574Z,45.10
2023-04-03T14:30:34.573Z,45.25
2023-04-03T14:34:37.643Z,45.53
2023-04-03T14:38:41.011Z,45.11
2023-04-03T14:42:44.491Z,44.71
2023-04-03T14:51:05.240Z,42.09
2023-04-03T14:55:09.859Z,42.09
2023-04-03T14:59:14.732Z,43.44
2023-04-03T15:03:21.640Z,43.23
2023-04-03T15:07:25.871Z,43.96
2023-04-03T15:11:28.885Z,44.12
2023-04-03T15:15:32.827Z,43.07
2023-04-03T15:19:39.881Z,43.22
2023-04-03T15:23:43.645Z,43.30
2023-04-03T15:27:46.682Z,43.22
2023-04-03T15:31:50.852Z,42.91
2023-04-03T15:36:02.978Z,43.05
2023-04-03T15:40:12.080Z,43.41
2023-04-03T15:44:15.122Z,43.08
2023-04-03T15:48:18.601Z,43.76
2023-04-03T15:52:23.244Z,43.80
2023-04-03T15:56:26.281Z,42.90
2023-04-03T16:00:30.262Z,44.01
2023-04-03T16:04:34.812Z,44.29
2023-04-03T16:08:39.323Z,43.87
2023-04-03T16:12:42.630Z,42.55
2023-04-03T16:16:46.058Z,42.83
2023-04-03T16:20:49.627Z,43.24
2023-04-03T16:24:54.045Z,43.69
2023-04-03T16:28:57.127Z,43.06
2023-04-03T16:33:00.275Z,43.17
2023-04-03T16:37:03.354Z,43.37
2023-04-03T16:41:07.831Z,43.66
2023-04-03T16:45:11.491Z,44.35
2023-04-03T16:49:14.568Z,44.40
2023-04-03T16:53:18.010Z,45.00
2023-04-03T16:57:22.442Z,44.24
2023-04-03T17:01:25.922Z,44.48
2023-04-03T17:05:29.037Z,43.82
2023-04-03T17:09:32.025Z,44.82
2023-04-03T17:13:37.051Z,45.32
2023-04-03T17:17:40.404Z,45.00
2023-04-03T17:21:43.501Z,44.69
2023-04-03T17:25:46.501Z,44.94
2023-04-03T17:29:50.896Z,44.78
2023-04-03T17:33:54.297Z,44.68
2023-04-03T17:37:57.292Z,45.00
2023-04-03T17:42:01.095Z,43.78
2023-04-03T17:46:09.069Z,44.62
2023-04-03T17:50:12.558Z,44.92
2023-04-03T17:54:16.977Z,44.66
2023-04-03T17:58:20.026Z,44.66
2023-04-03T18:02:24.517Z,45.30
2023-04-03T18:06:29.748Z,45.76
2023-04-03T18:10:32.784Z,46.39
2023-04-03T18:14:38.239Z,45.89
2023-04-03T18:18:42.859Z,46.22
2023-04-03T18:22:45.943Z,46.41
2023-04-03T18:26:55.152Z,46.68
2023-04-03T18:30:58.302Z,46.80
2023-04-03T18:35:03.110Z,46.21
2023-04-03T18:39:06.513Z,46.27
2023-04-03T18:43:09.903Z,45.60
2023-04-03T18:47:13.754Z,45.95
2023-04-03T18:51:18.195Z,45.75
2023-04-03T18:55:21.591Z,45.34
2023-04-03T18:59:25.121Z,45.43
2023-04-03T19:03:28.548Z,45.89
2023-04-03T19:07:34.768Z,45.03
2023-04-03T19:11:37.774Z,45.04
2023-04-03T19:15:40.840Z,45.05
2023-04-03T19:19:44.048Z,45.51
2023-04-03T19:23:48.786Z,46.37
2023-04-03T19:27:52.648Z,45.84
2023-04-03T19:31:55.724Z,46.35
2023-04-03T19:35:58.768Z,46.15
2023-04-03T19:40:03.646Z,45.99
2023-04-03T19:44:07.980Z,46.72
2023-04-03T19:48:11.677Z,46.78
2023-04-03T19:52:14.772Z,46.71
2023-04-03T19:56:21.260Z,46.08
2023-04-03T20:00:24.324Z,46.68
2023-04-03T20:04:27.403Z,46.73
2023-04-03T20:08:30.711Z,47.22
2023-04-03T20:12:38.198Z,47.08
2023-04-03T20:16:42.117Z,46.75
2023-04-03T20:20:45.271Z,47.15
2023-04-03T20:24:48.286Z,47.37
2023-04-03T20:28:53.975Z,47.26
2023-04-03T20:32:59.058Z,47.71
2023-04-03T20:37:02.383Z,46.98
2023-04-03T20:41:06.081Z,47.19
2023-04-03T20:45:11.491Z,47.58
2023-04-03T20:49:15.104Z,47.12
2023-04-03T20:53:19.124Z,47.32
2023-04-03T20:57:22.414Z,47.52
2023-04-03T21:01:27.222Z,47.42
2023-04-03T21:05:30.656Z,46.90
2023-04-03T21:10:11.121Z,47.28
2023-04-03T21:14:52.093Z,47.09
2023-04-03T21:19:09.326Z,47.31
2023-04-03T21:23:12.913Z,47.93
2023-04-03T21:27:15.922Z,47.68
2023-04-03T21:31:19.356Z,48.13
2023-04-03T21:35:24.125Z,47.55
2023-04-03T21:39:27.246Z,47.75
2023-04-03T21:43:30.850Z,47.99
2023-04-03T21:47:35.602Z,48.12
2023-04-03T21:51:40.077Z,48.68
2023-04-03T21:55:43.453Z,48.78
2023-04-03T21:59:46.780Z,48.35
2023-04-03T22:03:49.928Z,47.97
2023-04-03T22:07:54.434Z,48.32
2023-04-03T22:11:57.511Z,48.29
2023-04-03T22:16:01.872Z,48.03
2023-04-03T22:20:05.412Z,47.59
2023-04-03T22:24:10.293Z,47.35
2023-04-03T22:28:14.015Z,47.24
2023-04-03T22:32:17.932Z,47.31
2023-04-03T22:36:20.937Z,47.22
2023-04-03T22:40:25.348Z,47.29
2023-04-03T22:44:34.976Z,47.48
2023-04-03T22:48:43.427Z,47.00
2023-04-03T22:52:46.505Z,47.28
2023-04-03T22:56:50.880Z,47.76
2023-04-03T23:00:55.086Z,47.82
2023-04-03T23:04:58.516Z,47.95
2023-04-03T23:09:01.536Z,48.57
2023-04-03T23:13:05.915Z,47.89
2023-04-03T23:17:09.007Z,48.09
2023-04-03T23:21:11.998Z,48.25
2023-04-03T23:25:15.394Z,48.33
2023-04-03T23:29:19.885Z,48.26
2023-04-03T23:33:22.929Z,48.63
2023-04-03T23:37:26.189Z,48.33
2023-04-03T23:41:29.256Z,48.74
2023-04-03T23:45:34.238Z,48.89
2023-04-03T23:49:37.510Z,48.87
2023-04-03T23:53:40.602Z,48.95
2023-04-03T23:57:43.658Z,49.32
